Nearby METAR Reports

 

KMTN - Baltimore/Martin, Maryland, USA
Distance from station: SSE 8mi, 13km
Updated: Thu, 23-Oct-2014 5:12am EDT
Mostly cloudy
Mostly cloudy
 Wind from WNW
Wind: WNW 14 mph , 22 km/h, Gust: 20 mph , 31 km/h
Temperature: 54°F , 12°C
Dew Point: 46°F , 8°C
Humidity: 77%
Barometer: 29.84 inHg , 1010.5 hPa
Clouds: Mostly cloudy
Visibility: 10 miles , 16 km
Cloud details: Partly cloudy 3900 ft
Mostly cloudy 4700 ft
Mostly cloudy 6000 ft
2014/10/23 09:12 KMTN 230912Z AUTO 29012G17KT 10SM SCT039 BKN047 BKN060 12/08 A2984 RMK AO2
KDMH - Baltimore/Dwntwn, Maryland, USA
Distance from station: SW 12mi, 19km
Updated: Thu, 23-Oct-2014 4:54am EDT

 
Temperature: 54°F , 12°C
Dew Point: 43°F , 6°C
Humidity: 67%
Barometer: 29.84 inHg , 1010.5 hPa
2014/10/23 08:54 KDMH 230854Z AUTO 12/06 A2984 RMK AO1 SLP105 T01220061 56009
 
KBWI - Balto/Wash Intl, Maryland, USA
Distance from station: SSW 20mi, 33km
Updated: Thu, 23-Oct-2014 4:54am EDT
Overcast
Overcast
 Wind from WNW
Wind: WNW 10 mph , 17 km/h, Gust: 21 mph , 33 km/h
Temperature: 52°F , 11°C
Dew Point: 43°F , 6°C
Humidity: 72%
Barometer: 29.85 inHg , 1010.8 hPa
Clouds: Overcast
Visibility: 9 miles , 14 km
Cloud details: Overcast 3100 ft
2014/10/23 08:54 KBWI 230854Z 30009G18KT 9SM OVC031 11/06 A2985 RMK AO2 SLP107 T01110056 55007
KDMW - Carroll Cnty, Maryland, USA
Distance from station: WNW 30mi, 48km
Updated: Thu, 23-Oct-2014 5:10am EDT
Overcast
Overcast
 Wind from NW
Wind: NW 5 mph , 7 km/h, Gust: 17 mph , 28 km/h
Temperature: 52°F , 11°C
Dew Point: 45°F , 7°C
Humidity: 77%
Barometer: 29.88 inHg , 1011.9 hPa
Clouds: Overcast
Visibility: 10 miles , 16 km
Cloud details: Overcast 2500 ft
2014/10/23 09:10 KDMW 230910Z AUTO 32004G15KT 10SM OVC025 11/07 A2988 RMK AO2
 
KNAK - Annapolis/Naval, Maryland, USA
Distance from station: S 30mi, 48km
Updated: Thu, 23-Oct-2014 4:54am EDT
Overcast
Overcast
 Wind from NW
Wind: NW 16 mph , 26 km/h, Gust: 22 mph , 35 km/h
Temperature: 54°F , 12°C
Dew Point: 45°F , 7°C
Humidity: 72%
Barometer: 29.83 inHg , 1010.2 hPa
Clouds: Overcast
Visibility: 10 miles , 16 km
Cloud details: Overcast 3900 ft
2014/10/23 08:54 KNAK 230854Z AUTO 31014G19KT 10SM OVC039 12/07 A2983 RMK AO2 SLP105 T01220067 55006
KW29 - Stevensville, Maryland, USA
Distance from station: SSE 31mi, 50km
Updated: Thu, 23-Oct-2014 5:13am EDT

 Wind from NW
Wind: NW 16 mph , 26 km/h, Gust: 28 mph , 44 km/h
Temperature: 54°F , 12°C
Dew Point: 45°F , 7°C
Humidity: 72%
Barometer: 29.83 inHg , 1010.2 hPa
Visibility: 10 miles , 16 km
2014/10/23 09:13 KW29 230913Z AUTO 32014G24KT 10SM 12/07 A2983 RMK AO1
 
KCGS - College Park, Maryland, USA
Distance from station: SW 38mi, 61km
Updated: Thu, 23-Oct-2014 5:10am EDT
Overcast
Overcast
 Wind from NW
Wind: NW 12 mph , 19 km/h, Gust: 16 mph , 26 km/h
Temperature: 54°F , 12°C
Dew Point: 43°F , 6°C
Humidity: 67%
Barometer: 29.87 inHg , 1011.5 hPa
Clouds: Overcast
Visibility: 10 miles , 16 km
Cloud details: Overcast 3400 ft
2014/10/23 09:10 KCGS 230910Z AUTO 31010G14KT 10SM OVC034 12/06 A2987 RMK AO1
KGAI - Gaithersburg, Maryland, USA
Distance from station: WSW 40mi, 65km
Updated: Thu, 23-Oct-2014 5:15am EDT
Overcast
Overcast
 Wind from NW
Wind: NW 13 mph , 20 km/h, Gust: 18 mph , 30 km/h
Temperature: 50°F , 10°C
Wind Chill: 45°F , 7°C
Dew Point: 41°F , 5°C
Humidity: 71%
Barometer: 29.92 inHg , 1013.2 hPa
Clouds: Overcast
Visibility: 10 miles , 16 km
Cloud details: Overcast 3000 ft
2014/10/23 09:15 KGAI 230915Z 31011G16KT 10SM OVC030 10/05 A2992 RMK AO1
 
KTHV - York, Pennsylvania, USA
Distance from station: NNW 40mi, 65km
Updated: Thu, 23-Oct-2014 4:53am EDT
Overcast
Overcast
 Wind from NNW
Wind: NNW 14 mph , 22 km/h
Temperature: 52°F , 11°C
Dew Point: 43°F , 6°C
Humidity: 72%
Barometer: 29.87 inHg , 1011.5 hPa
Clouds: Overcast
Visibility: 10 miles , 16 km
Cloud details: Overcast 2800 ft
2014/10/23 08:53 KTHV 230853Z AUTO 33012KT 10SM OVC028 11/06 A2987 RMK AO2 RAB06E07 SLP117 P0000 60000 T01110061 56006
KFDK - Frederick, Maryland, USA
Distance from station: W 47mi, 75km
Updated: Thu, 23-Oct-2014 5:10am EDT
Overcast
Overcast
 Wind from NNW
Wind: NNW 15 mph , 24 km/h
Temperature: 55°F , 13°C
Dew Point: 43°F , 6°C
Humidity: 63%
Barometer: 29.94 inHg , 1013.9 hPa
Clouds: Overcast
Visibility: 10 miles , 16 km
Cloud details: Overcast 3200 ft
2014/10/23 09:10 KFDK 230910Z AUTO 33013KT 10SM OVC032 13/06 A2994 RMK AO2 LTG DSNT E
 
KESN - Easton/Newnam, Maryland, USA
Distance from station: SSE 48mi, 78km
Updated: Thu, 23-Oct-2014 5:26am EDT
Mostly cloudy
Mostly cloudy
 Wind from NNW
Wind: NNW 13 mph , 20 km/h, Gust: 24 mph , 39 km/h
Temperature: 55°F , 13°C
Dew Point: 50°F , 10°C
Humidity: 82%
Barometer: 29.85 inHg , 1010.8 hPa
Clouds: Mostly cloudy
Visibility: 10 miles , 16 km
Cloud details: Mostly cloudy 3000 ft
2014/10/23 09:26 KESN 230926Z AUTO 34011G21KT 10SM BKN030 13/10 A2985 RMK AO2 T01250095
KDCA - Washington/Natl, Washington D.c., USA
Distance from station: SW 49mi, 79km
Updated: Thu, 23-Oct-2014 4:52am EDT
Overcast
Overcast
 Wind from NW
Wind: NW 20 mph , 31 km/h, Gust: 25 mph , 41 km/h
Temperature: 54°F , 12°C
Dew Point: 41°F , 5°C
Humidity: 63%
Barometer: 29.89 inHg , 1012.2 hPa
Clouds: Overcast
Visibility: 10 miles , 16 km
Cloud details: Mostly cloudy 3700 ft
Overcast 5000 ft
2014/10/23 08:52 KDCA 230852Z 32017G22KT 10SM BKN037 OVC050 12/05 A2989 RMK AO2 SLP121 T01220050 55009
 
KLNS - Lancaster, Pennsylvania, USA
Distance from station: N 49mi, 79km
Updated: Thu, 23-Oct-2014 4:53am EDT
Overcast
Overcast
 Wind from NNW
Wind: NNW 10 mph , 17 km/h, Gust: 22 mph , 35 km/h
Temperature: 52°F , 11°C
Dew Point: 43°F , 6°C
Humidity: 72%
Barometer: 29.83 inHg , 1010.2 hPa
Clouds: Overcast
Visibility: 10 miles , 16 km
Cloud details: Overcast 2700 ft
2014/10/23 08:53 KLNS 230853Z AUTO 33009G19KT 10SM OVC027 11/06 A2983 RMK AO2 PK WND 34026/0809 SLP102 60000 T01060056 58003
KILG - Wilmington, Delaware, USA
Distance from station: ENE 50mi, 81km
Updated: Thu, 23-Oct-2014 4:51am EDT
Overcast
Overcast
 Wind from NNW
Wind: NNW 21 mph , 33 km/h, Gust: 29 mph , 46 km/h
Temperature: 54°F , 12°C
Dew Point: 45°F , 7°C
Humidity: 72%
Barometer: 29.78 inHg , 1008.5 hPa
Clouds: Overcast
Visibility: 10 miles , 16 km
Cloud details: Overcast 4400 ft
2014/10/23 08:51 KILG 230851Z 33018G25KT 10SM OVC044 12/07 A2978 RMK AO2 SLP085 T01170072 55002